createdAt,value
2018-06-05T00:00:50.924Z,21.87
2018-06-05T00:03:19.297Z,21.89
2018-06-05T00:05:47.620Z,21.87
2018-06-05T00:08:15.945Z,21.81
2018-06-05T00:10:44.296Z,21.79
2018-06-05T00:13:12.648Z,21.75
2018-06-05T00:15:40.997Z,21.72
2018-06-05T00:18:09.322Z,21.70
2018-06-05T00:20:37.685Z,21.67
2018-06-05T00:23:06.102Z,21.64
2018-06-05T00:25:34.567Z,21.60
2018-06-05T00:28:03.063Z,21.57
2018-06-05T00:30:31.371Z,21.54
2018-06-05T00:32:59.698Z,21.49
2018-06-05T00:35:28.028Z,21.46
2018-06-05T00:37:56.402Z,21.43
2018-06-05T00:40:24.787Z,21.38
2018-06-05T00:42:53.099Z,21.36
2018-06-05T00:45:21.423Z,21.34
2018-06-05T00:47:49.739Z,21.34
2018-06-05T00:50:18.099Z,21.33
2018-06-05T00:52:46.456Z,21.30
2018-06-05T00:55:14.883Z,21.27
2018-06-05T00:57:43.207Z,21.25
2018-06-05T01:00:11.511Z,21.22
2018-06-05T01:02:39.842Z,21.21
2018-06-05T01:05:08.243Z,21.20
2018-06-05T01:07:36.558Z,21.16
2018-06-05T01:10:05.479Z,21.16
2018-06-05T01:12:33.912Z,21.11
2018-06-05T01:15:02.235Z,21.09
2018-06-05T01:17:30.620Z,21.08
2018-06-05T01:19:58.981Z,21.08
2018-06-05T01:22:27.287Z,21.05
2018-06-05T01:24:55.632Z,21.01
2018-06-05T01:27:23.927Z,20.99
2018-06-05T01:29:52.277Z,20.97
2018-06-05T01:32:20.597Z,20.95
2018-06-05T01:34:48.957Z,20.96
2018-06-05T01:37:17.377Z,20.95
2018-06-05T01:39:45.772Z,20.97
2018-06-05T01:42:14.102Z,20.95
2018-06-05T01:44:42.524Z,20.94
2018-06-05T01:47:10.952Z,20.92
2018-06-05T01:49:41.258Z,20.92
2018-06-05T01:52:09.961Z,20.93
2018-06-05T01:54:38.293Z,20.96
2018-06-05T01:57:06.596Z,20.97
2018-06-05T01:59:34.944Z,20.98
2018-06-05T02:02:03.306Z,20.99
2018-06-05T02:04:31.686Z,21.02
2018-06-05T02:07:00.067Z,21.04
2018-06-05T02:09:28.430Z,21.03
2018-06-05T02:11:56.783Z,21.02
2018-06-05T02:14:25.095Z,21.02
2018-06-05T02:16:53.433Z,21.01
2018-06-05T02:19:21.855Z,21.01
2018-06-05T02:21:50.259Z,21.01
2018-06-05T02:24:18.580Z,21.00
2018-06-05T02:26:47.059Z,21.00
2018-06-05T02:29:15.379Z,21.00
2018-06-05T02:31:43.766Z,21.02
2018-06-05T02:34:12.094Z,21.02
2018-06-05T02:36:40.612Z,21.03
2018-06-05T02:39:09.003Z,21.02
2018-06-05T02:41:37.392Z,21.01
2018-06-05T02:44:05.739Z,21.01
2018-06-05T02:46:34.139Z,21.02
2018-06-05T02:49:02.642Z,21.04
2018-06-05T02:51:30.975Z,21.05
2018-06-05T02:53:59.355Z,21.04
2018-06-05T02:56:27.653Z,21.06
2018-06-05T02:58:56.065Z,21.06
2018-06-05T03:01:24.603Z,21.08
2018-06-05T03:03:52.978Z,21.10
2018-06-05T03:06:21.292Z,21.08
2018-06-05T03:08:49.715Z,21.08
2018-06-05T03:11:18.095Z,21.07
2018-06-05T03:13:46.398Z,21.06
2018-06-05T03:16:14.782Z,21.10
2018-06-05T03:18:43.262Z,21.10
2018-06-05T03:21:11.665Z,21.09
2018-06-05T03:23:39.991Z,21.09
2018-06-05T03:26:08.317Z,21.12
2018-06-05T03:28:36.762Z,21.08
2018-06-05T03:31:06.043Z,21.13
2018-06-05T03:33:34.540Z,21.12
2018-06-05T03:36:02.861Z,21.08
2018-06-05T03:38:31.163Z,21.06
2018-06-05T03:40:59.475Z,21.08
2018-06-05T03:43:27.809Z,21.07
2018-06-05T03:45:56.215Z,21.08
2018-06-05T03:48:24.605Z,21.09
2018-06-05T03:50:52.924Z,21.09
2018-06-05T03:53:21.300Z,21.08
2018-06-05T03:55:49.630Z,21.10
2018-06-05T03:58:17.995Z,21.10
2018-06-05T04:00:46.401Z,21.10
2018-06-05T04:03:14.747Z,21.10
2018-06-05T04:05:43.174Z,21.10
2018-06-05T04:08:11.510Z,21.08
2018-06-05T04:10:39.878Z,21.10
2018-06-05T04:13:08.274Z,21.12
2018-06-05T04:15:36.656Z,21.14
2018-06-05T04:18:05.947Z,21.14
2018-06-05T04:20:34.350Z,21.16
2018-06-05T04:23:02.702Z,21.18
2018-06-05T04:25:31.002Z,21.18
2018-06-05T04:27:59.384Z,21.20
2018-06-05T04:30:27.980Z,21.21
2018-06-05T04:32:56.417Z,21.19
2018-06-05T04:35:24.769Z,21.18
2018-06-05T04:37:53.101Z,21.17
2018-06-05T04:40:21.483Z,21.17
2018-06-05T04:42:49.923Z,21.17
2018-06-05T04:45:18.305Z,21.19
2018-06-05T04:47:46.828Z,21.19
2018-06-05T04:50:15.208Z,21.20
2018-06-05T04:52:43.699Z,21.22
2018-06-05T04:55:12.076Z,21.23
2018-06-05T04:57:41.003Z,21.21
2018-06-05T05:00:09.483Z,21.22
2018-06-05T05:02:37.988Z,21.21
2018-06-05T05:05:06.353Z,21.23
2018-06-05T05:07:34.663Z,21.28
2018-06-05T05:10:02.971Z,21.25
2018-06-05T05:12:31.362Z,21.31
2018-06-05T05:14:59.724Z,21.33
2018-06-05T05:17:28.103Z,21.33
2018-06-05T05:19:56.440Z,21.34
2018-06-05T05:22:24.825Z,21.35
2018-06-05T05:24:53.264Z,21.38
2018-06-05T05:27:21.749Z,21.39
2018-06-05T05:29:50.174Z,21.35
2018-06-05T05:32:18.522Z,21.29
2018-06-05T05:34:46.886Z,21.27
2018-06-05T05:37:15.200Z,21.24
2018-06-05T05:39:43.558Z,21.21
2018-06-05T05:42:12.094Z,21.21
2018-06-05T05:44:41.235Z,21.17
2018-06-05T05:47:09.850Z,21.18
2018-06-05T05:49:38.205Z,21.20
2018-06-05T05:52:06.639Z,21.20
2018-06-05T05:54:35.048Z,21.20
2018-06-05T05:57:03.454Z,21.17
2018-06-05T05:59:31.947Z,21.19
2018-06-05T06:02:00.357Z,21.17
2018-06-05T06:04:28.690Z,21.18
2018-06-05T06:06:57.152Z,21.20
2018-06-05T06:09:25.515Z,21.21
2018-06-05T06:11:53.937Z,21.23
2018-06-05T06:14:22.343Z,21.19
2018-06-05T06:16:50.677Z,21.19
2018-06-05T06:19:19.041Z,21.18
2018-06-05T06:21:47.344Z,21.19
2018-06-05T06:24:15.675Z,21.19
2018-06-05T06:26:44.036Z,21.20
2018-06-05T06:29:12.446Z,21.25
2018-06-05T06:31:40.804Z,21.26
2018-06-05T06:34:09.127Z,21.27
2018-06-05T06:36:37.447Z,21.32
2018-06-05T06:39:09.283Z,21.35
2018-06-05T06:41:38.055Z,21.38
2018-06-05T06:44:06.447Z,21.38
2018-06-05T06:46:34.893Z,21.44
2018-06-05T06:49:03.337Z,21.46
2018-06-05T06:51:31.676Z,21.49
2018-06-05T06:54:00.040Z,21.53
2018-06-05T06:56:28.464Z,21.55
2018-06-05T06:58:56.818Z,21.56
2018-06-05T07:01:25.203Z,21.59
2018-06-05T07:03:54.218Z,21.66
2018-06-05T07:06:22.571Z,21.68
2018-06-05T07:08:50.994Z,21.69
2018-06-05T07:11:19.459Z,21.68
2018-06-05T07:13:47.787Z,21.69
2018-06-05T07:16:16.166Z,21.70
2018-06-05T07:18:44.542Z,21.74
2018-06-05T07:21:12.863Z,21.79
2018-06-05T07:23:41.228Z,21.78
2018-06-05T07:26:09.541Z,21.77
2018-06-05T07:28:37.938Z,21.80
2018-06-05T07:31:07.083Z,21.79
2018-06-05T07:33:35.494Z,21.82
2018-06-05T07:36:03.849Z,21.86
2018-06-05T07:38:32.190Z,21.90
2018-06-05T07:41:00.562Z,21.95
2018-06-05T07:43:28.958Z,21.98
2018-06-05T07:45:57.374Z,21.97
2018-06-05T07:48:25.778Z,21.96
2018-06-05T07:50:54.087Z,21.95
2018-06-05T07:53:22.547Z,21.93
2018-06-05T07:55:50.901Z,21.93
2018-06-05T07:58:19.327Z,21.92
2018-06-05T08:00:47.676Z,21.95
2018-06-05T08:03:16.034Z,21.97
2018-06-05T08:05:44.424Z,21.99
2018-06-05T08:08:12.787Z,21.99
2018-06-05T08:10:41.173Z,21.98
2018-06-05T08:13:09.572Z,21.95
2018-06-05T08:15:38.095Z,22.02
2018-06-05T08:18:06.459Z,22.06
2018-06-05T08:20:34.815Z,22.11
2018-06-05T08:23:03.167Z,22.15
2018-06-05T08:25:31.607Z,22.17
2018-06-05T08:28:00.044Z,22.15
2018-06-05T08:30:28.454Z,22.16
2018-06-05T08:32:56.800Z,22.17
2018-06-05T08:35:25.115Z,22.18
2018-06-05T08:37:53.495Z,22.17
2018-06-05T08:40:21.807Z,22.15
2018-06-05T08:42:50.255Z,22.17
2018-06-05T08:45:18.634Z,22.18
2018-06-05T08:47:46.986Z,22.19
2018-06-05T08:50:15.330Z,22.19
2018-06-05T08:52:43.835Z,22.24
2018-06-05T08:55:12.329Z,22.28
2018-06-05T08:57:40.757Z,22.30
2018-06-05T09:00:09.239Z,22.35
2018-06-05T09:02:37.641Z,22.41
2018-06-05T09:05:06.086Z,22.42
2018-06-05T09:07:34.515Z,22.44
2018-06-05T09:10:03.007Z,22.48
2018-06-05T09:12:31.471Z,22.50
2018-06-05T09:14:59.790Z,22.52
2018-06-05T09:17:28.128Z,22.51
2018-06-05T09:19:56.523Z,22.50
2018-06-05T09:22:24.976Z,22.52
2018-06-05T09:24:53.467Z,22.52
2018-06-05T09:27:21.806Z,22.54
2018-06-05T09:29:50.137Z,22.55
2018-06-05T09:32:18.514Z,22.52
2018-06-05T09:34:46.882Z,22.51
2018-06-05T09:37:15.306Z,22.53
2018-06-05T09:39:43.753Z,22.57
2018-06-05T09:42:12.119Z,22.57
2018-06-05T09:44:40.493Z,22.57
2018-06-05T09:47:09.355Z,22.57
2018-06-05T09:49:37.875Z,22.61
2018-06-05T09:52:06.265Z,22.66
2018-06-05T09:54:34.575Z,22.74
2018-06-05T09:57:02.983Z,22.78
2018-06-05T09:59:31.301Z,22.84
2018-06-05T10:01:59.642Z,22.91
2018-06-05T10:04:28.040Z,22.96
2018-06-05T10:06:56.517Z,23.06
2018-06-05T10:09:24.982Z,23.12
2018-06-05T10:11:53.322Z,23.19
2018-06-05T10:14:21.738Z,23.19
2018-06-05T10:16:50.110Z,23.17
2018-06-05T10:19:18.594Z,23.13
2018-06-05T10:21:46.984Z,23.13
2018-06-05T10:24:15.332Z,23.12
2018-06-05T10:26:43.683Z,23.14
2018-06-05T10:29:12.091Z,23.16
2018-06-05T10:31:40.434Z,23.14
2018-06-05T10:34:08.916Z,23.23
2018-06-05T10:36:37.429Z,23.28
2018-06-05T10:39:07.740Z,23.38
2018-06-05T10:41:36.291Z,23.54
2018-06-05T10:44:04.717Z,23.73
2018-06-05T10:46:33.042Z,23.98
2018-06-05T10:49:01.434Z,24.21
2018-06-05T10:51:29.796Z,24.41
2018-06-05T10:53:58.239Z,24.58
2018-06-05T10:56:26.668Z,24.78
2018-06-05T10:58:55.021Z,24.97
2018-06-05T11:01:23.355Z,25.12
2018-06-05T11:03:51.751Z,25.20
2018-06-05T11:06:20.072Z,25.27
2018-06-05T11:08:48.484Z,25.35
2018-06-05T11:11:16.956Z,25.40
2018-06-05T11:13:45.303Z,25.36
2018-06-05T11:16:13.680Z,25.31
2018-06-05T11:18:42.102Z,25.29
2018-06-05T11:21:10.520Z,25.31
2018-06-05T11:23:39.168Z,25.48
2018-06-05T11:26:07.564Z,25.67
2018-06-05T11:28:35.972Z,25.82
2018-06-05T11:31:04.324Z,25.89
2018-06-05T11:33:32.695Z,25.88
2018-06-05T11:36:01.087Z,25.80
2018-06-05T11:38:29.519Z,25.76
2018-06-05T11:40:57.885Z,25.82
2018-06-05T11:43:26.241Z,25.96
2018-06-05T11:45:54.578Z,26.07
2018-06-05T11:48:23.051Z,26.24
2018-06-05T11:50:51.479Z,26.42
2018-06-05T11:53:19.888Z,26.56
2018-06-05T11:55:48.252Z,26.56
2018-06-05T11:58:16.601Z,26.69
2018-06-05T12:00:45.004Z,26.80
2018-06-05T12:03:13.412Z,26.93
2018-06-05T12:05:41.928Z,27.07
2018-06-05T12:08:10.380Z,27.18
2018-06-05T12:10:38.711Z,27.35
2018-06-05T12:13:07.069Z,27.31
2018-06-05T12:15:35.469Z,27.36
2018-06-05T12:18:03.879Z,27.39
2018-06-05T12:20:32.336Z,27.40
2018-06-05T12:23:00.728Z,27.45
2018-06-05T12:25:29.110Z,27.46
2018-06-05T12:27:57.442Z,27.46
2018-06-05T12:30:25.877Z,27.48
2018-06-05T12:32:54.359Z,27.46
2018-06-05T12:35:22.779Z,27.35
2018-06-05T12:37:51.160Z,27.34
2018-06-05T12:40:19.523Z,27.43
2018-06-05T12:42:47.871Z,27.58
2018-06-05T12:45:16.287Z,27.78
2018-06-05T12:47:44.740Z,28.00
2018-06-05T12:50:13.096Z,28.20
2018-06-05T12:52:41.472Z,28.31
2018-06-05T12:55:09.845Z,28.37
2018-06-05T12:57:38.270Z,28.35
2018-06-05T13:00:07.630Z,28.27
2018-06-05T13:02:36.041Z,28.38
2018-06-05T13:05:04.605Z,28.48
2018-06-05T13:07:32.975Z,28.66
2018-06-05T13:10:01.374Z,28.83
2018-06-05T13:12:29.722Z,28.93
2018-06-05T13:14:59.246Z,28.97
2018-06-05T13:17:27.614Z,28.97
2018-06-05T13:19:56.055Z,28.98
2018-06-05T13:22:24.556Z,28.88
2018-06-05T13:24:52.890Z,28.85
2018-06-05T13:27:21.224Z,28.81
2018-06-05T13:29:49.612Z,28.73
2018-06-05T13:32:18.112Z,28.80
2018-06-05T13:34:46.724Z,28.91
2018-06-05T13:37:15.251Z,28.92
2018-06-05T13:39:43.699Z,28.92
2018-06-05T13:42:12.052Z,28.95
2018-06-05T13:44:40.446Z,28.93
2018-06-05T13:47:09.137Z,28.95
2018-06-05T13:49:37.907Z,29.04
2018-06-05T13:52:06.501Z,29.11
2018-06-05T13:54:34.964Z,29.19
2018-06-05T13:57:03.487Z,29.21
2018-06-05T13:59:31.839Z,29.18
2018-06-05T14:02:00.279Z,29.27
2018-06-05T14:04:28.738Z,29.23
2018-06-05T14:06:57.116Z,29.41
2018-06-05T14:09:25.493Z,29.42
2018-06-05T14:11:54.001Z,29.37
2018-06-05T14:14:22.992Z,29.43
2018-06-05T14:16:51.523Z,29.49
2018-06-05T14:19:19.999Z,29.52
2018-06-05T14:21:48.439Z,29.53
2018-06-05T14:24:16.839Z,29.54
2018-06-05T14:26:45.374Z,29.49
2018-06-05T14:29:13.757Z,29.41
2018-06-05T14:31:42.213Z,29.37
2018-06-05T14:34:10.840Z,29.35
2018-06-05T14:36:39.353Z,29.30
2018-06-05T14:39:09.144Z,29.27
2018-06-05T14:41:37.988Z,29.22
2018-06-05T14:44:06.784Z,29.13
2018-06-05T14:46:35.318Z,29.04
2018-06-05T14:49:03.742Z,28.99
2018-06-05T14:51:32.172Z,28.90
2018-06-05T14:54:02.270Z,28.83
2018-06-05T14:56:30.688Z,28.72
2018-06-05T14:58:59.198Z,28.63
2018-06-05T15:01:27.615Z,28.60
2018-06-05T15:03:56.023Z,28.56
2018-06-05T15:06:24.433Z,28.53
2018-06-05T15:08:52.839Z,28.48
2018-06-05T15:11:21.252Z,28.38
2018-06-05T15:13:49.704Z,28.43
2018-06-05T15:16:18.861Z,28.43
2018-06-05T15:18:47.359Z,28.45
2018-06-05T15:21:17.788Z,28.45
2018-06-05T15:23:55.988Z,28.44
2018-06-05T15:26:24.603Z,28.49
2018-06-05T15:28:52.990Z,28.49
2018-06-05T15:31:21.511Z,28.58
2018-06-05T15:33:50.193Z,28.65
2018-06-05T15:36:19.099Z,28.69
2018-06-05T15:38:47.517Z,28.66
2018-06-05T15:41:16.048Z,28.68
2018-06-05T15:44:27.161Z,28.59
2018-06-05T15:46:55.475Z,28.66
2018-06-05T15:49:23.839Z,28.70
2018-06-05T15:51:52.406Z,28.75
2018-06-05T15:54:20.812Z,28.91
2018-06-05T15:56:49.250Z,29.12
2018-06-05T15:59:17.625Z,29.51
2018-06-05T16:01:45.938Z,29.90
2018-06-05T16:04:14.291Z,30.23
2018-06-05T16:06:42.795Z,30.66
2018-06-05T16:09:11.225Z,31.11
2018-06-05T16:11:39.679Z,31.53
2018-06-05T16:14:08.027Z,31.85
2018-06-05T16:16:36.387Z,32.00
2018-06-05T16:19:04.863Z,32.24
2018-06-05T16:21:33.420Z,32.41
2018-06-05T16:24:01.801Z,32.41
2018-06-05T16:26:30.232Z,32.48
2018-06-05T16:28:58.711Z,32.48
2018-06-05T16:31:27.062Z,32.65
2018-06-05T16:33:55.476Z,32.81
2018-06-05T16:36:23.867Z,32.83
2018-06-05T16:38:52.244Z,32.92
2018-06-05T16:41:20.618Z,33.00
2018-06-05T16:43:48.995Z,32.98
2018-06-05T16:46:17.338Z,33.09
2018-06-05T16:48:45.773Z,33.07
2018-06-05T16:51:14.152Z,33.11
2018-06-05T16:53:42.551Z,33.07
2018-06-05T16:56:10.915Z,32.81
2018-06-05T16:58:39.241Z,32.81
2018-06-05T17:01:07.640Z,32.79
2018-06-05T17:03:36.955Z,32.67
2018-06-05T17:06:05.427Z,32.62
2018-06-05T17:08:33.931Z,32.43
2018-06-05T17:11:02.280Z,32.03
2018-06-05T17:13:30.619Z,31.81
2018-06-05T17:15:58.931Z,31.85
2018-06-05T17:18:27.343Z,31.67
2018-06-05T17:20:55.866Z,31.52
2018-06-05T17:23:24.275Z,31.27
2018-06-05T17:25:52.786Z,31.12
2018-06-05T17:28:21.714Z,30.93
2018-06-05T17:30:50.007Z,30.77
2018-06-05T17:33:18.407Z,30.56
2018-06-05T17:35:46.788Z,30.31
2018-06-05T17:38:15.134Z,30.19
2018-06-05T17:40:43.618Z,29.99
2018-06-05T17:43:11.939Z,29.86
2018-06-05T17:45:40.259Z,29.61
2018-06-05T17:48:08.631Z,29.21
2018-06-05T17:50:37.031Z,28.84
2018-06-05T17:53:05.434Z,28.45
2018-06-05T17:55:33.896Z,28.13
2018-06-05T17:58:02.273Z,27.84
2018-06-05T18:00:30.648Z,27.58
2018-06-05T18:02:59.030Z,27.34
2018-06-05T18:05:27.520Z,27.33
2018-06-05T18:07:55.851Z,27.60
2018-06-05T18:10:24.187Z,27.86
2018-06-05T18:12:52.563Z,27.64
2018-06-05T18:15:20.967Z,27.34
2018-06-05T18:17:49.369Z,27.00
2018-06-05T18:20:17.775Z,26.81
2018-06-05T18:22:46.087Z,26.69
2018-06-05T18:25:14.418Z,26.55
2018-06-05T18:27:42.831Z,26.39
2018-06-05T18:30:11.189Z,26.21
2018-06-05T18:32:39.719Z,26.08
2018-06-05T18:35:08.101Z,26.00
2018-06-05T18:37:36.536Z,25.91
2018-06-05T18:40:05.103Z,25.85
2018-06-05T18:42:33.507Z,25.79
2018-06-05T18:45:01.943Z,25.73
2018-06-05T18:47:30.317Z,25.69
2018-06-05T18:49:58.851Z,25.56
2018-06-05T18:52:27.187Z,25.50
2018-06-05T18:54:55.503Z,25.44
2018-06-05T18:57:23.901Z,25.39
2018-06-05T18:59:52.281Z,25.35
2018-06-05T19:02:20.684Z,25.33
2018-06-05T19:04:49.005Z,25.22
2018-06-05T19:07:17.375Z,25.18
2018-06-05T19:09:45.754Z,25.12
2018-06-05T19:12:14.193Z,25.05
2018-06-05T19:14:42.552Z,25.04
2018-06-05T19:17:10.935Z,24.97
2018-06-05T19:19:39.471Z,24.92
2018-06-05T19:22:07.791Z,24.85
2018-06-05T19:24:36.222Z,24.79
2018-06-05T19:27:04.635Z,24.77
2018-06-05T19:29:33.142Z,24.72
2018-06-05T19:32:01.601Z,24.68
2018-06-05T19:34:29.855Z,24.62
2018-06-05T19:36:58.205Z,24.56
2018-06-05T19:39:26.647Z,24.52
2018-06-05T19:41:55.082Z,24.49
2018-06-05T19:44:23.558Z,24.47
2018-06-05T19:46:51.957Z,24.43
2018-06-05T19:49:20.287Z,24.40
2018-06-05T19:51:48.617Z,24.35
2018-06-05T19:54:16.990Z,24.28
2018-06-05T19:56:45.554Z,24.25
2018-06-05T19:59:13.908Z,24.19
2018-06-05T20:01:42.302Z,24.14
2018-06-05T20:04:10.607Z,24.11
2018-06-05T20:06:39.027Z,24.07
2018-06-05T20:09:08.535Z,24.04
2018-06-05T20:11:36.949Z,23.99
2018-06-05T20:14:05.453Z,23.98
2018-06-05T20:16:33.777Z,23.94
2018-06-05T20:19:02.102Z,23.91
2018-06-05T20:21:30.406Z,23.88
2018-06-05T20:23:58.838Z,23.85
2018-06-05T20:26:27.231Z,23.84
2018-06-05T20:28:55.574Z,23.83
2018-06-05T20:31:23.952Z,23.78
2018-06-05T20:33:52.298Z,23.77
2018-06-05T20:36:20.702Z,23.75
2018-06-05T20:38:49.171Z,23.70
2018-06-05T20:41:17.570Z,23.65
2018-06-05T20:43:45.987Z,23.59
2018-06-05T20:46:14.295Z,23.55
2018-06-05T20:48:42.625Z,23.52
2018-06-05T20:51:11.000Z,23.48
2018-06-05T20:53:39.626Z,23.43
2018-06-05T20:56:08.036Z,23.41
2018-06-05T20:58:36.415Z,23.36
2018-06-05T21:01:04.818Z,23.31
2018-06-05T21:03:33.277Z,23.25
2018-06-05T21:06:01.676Z,23.21
2018-06-05T21:08:32.217Z,23.13
2018-06-05T21:11:00.644Z,23.09
2018-06-05T21:13:29.044Z,23.05
2018-06-05T21:15:57.378Z,23.01
2018-06-05T21:18:25.738Z,22.97
2018-06-05T21:20:54.053Z,22.95
2018-06-05T21:23:22.422Z,22.91
2018-06-05T21:25:50.873Z,22.86
2018-06-05T21:28:19.372Z,22.84
2018-06-05T21:30:47.734Z,22.82
2018-06-05T21:33:16.076Z,22.78
2018-06-05T21:35:44.411Z,22.72
2018-06-05T21:38:12.779Z,22.66
2018-06-05T21:40:41.156Z,22.61
2018-06-05T21:43:09.586Z,22.59
2018-06-05T21:45:37.893Z,22.57
2018-06-05T21:48:06.288Z,22.55
2018-06-05T21:50:34.671Z,22.54
2018-06-05T21:53:03.119Z,22.50
2018-06-05T21:55:31.453Z,22.48
2018-06-05T21:57:59.856Z,22.44
2018-06-05T22:00:28.175Z,22.42
2018-06-05T22:02:56.564Z,22.39
2018-06-05T22:05:24.899Z,22.35
2018-06-05T22:07:53.315Z,22.31
2018-06-05T22:10:21.655Z,22.29
2018-06-05T22:12:49.953Z,22.27
2018-06-05T22:15:18.281Z,22.25
2018-06-05T22:17:46.591Z,22.24
2018-06-05T22:20:14.979Z,22.20
2018-06-05T22:22:43.369Z,22.17
2018-06-05T22:25:11.737Z,22.14
2018-06-05T22:27:40.075Z,22.08
2018-06-05T22:30:08.455Z,22.04
2018-06-05T22:32:36.755Z,21.99
2018-06-05T22:35:05.265Z,21.96
2018-06-05T22:37:33.606Z,21.93
2018-06-05T22:40:01.945Z,21.92
2018-06-05T22:42:30.271Z,21.84
2018-06-05T22:44:58.635Z,21.87
2018-06-05T22:47:26.993Z,21.84
2018-06-05T22:49:55.310Z,21.81
2018-06-05T22:52:23.669Z,21.79
2018-06-05T22:54:51.968Z,21.72
2018-06-05T22:57:20.274Z,21.68
2018-06-05T22:59:48.635Z,21.63
2018-06-05T23:02:17.021Z,21.58
2018-06-05T23:04:45.384Z,21.53
2018-06-05T23:07:13.744Z,21.48
2018-06-05T23:09:42.072Z,21.46
2018-06-05T23:12:10.425Z,21.46
2018-06-05T23:14:38.775Z,21.43
2018-06-05T23:17:07.099Z,21.39
2018-06-05T23:19:35.431Z,21.37
2018-06-05T23:22:03.796Z,21.35
2018-06-05T23:24:32.117Z,21.33
2018-06-05T23:27:00.504Z,21.31
2018-06-05T23:29:28.894Z,21.30
2018-06-05T23:31:57.268Z,21.27
2018-06-05T23:34:25.591Z,21.24
2018-06-05T23:36:53.904Z,21.23
2018-06-05T23:39:22.222Z,21.21
2018-06-05T23:41:50.551Z,21.17
2018-06-05T23:44:18.915Z,21.17
2018-06-05T23:46:47.250Z,21.16
2018-06-05T23:49:15.575Z,21.16
2018-06-05T23:51:43.903Z,21.14
2018-06-05T23:54:12.265Z,21.09
2018-06-05T23:56:40.637Z,21.06
2018-06-05T23:59:09.064Z,21.04
